Time,TemperatureF,DewpointF,PressureIn,WindDirection,WindDirectionDegrees,WindSpeedMPH,WindSpeedGustMPH,Humidity,HourlyPrecipIn,Conditions,Clouds,dailyrainin,SoftwareType,DateUTC
2013-06-27 00:01:00,72.9,68.8,30.00,WSW,241,10.4,10.4,87,0.00,RA,,0.00,WeatherDisplay:10.37,2013-06-27 04:01:00,
2013-06-27 00:06:00,72.9,68.8,30.00,South,183,8.1,8.1,87,0.00,RA,,0.00,WeatherDisplay:10.37,2013-06-27 04:06:00,
2013-06-27 00:11:00,73.0,69.2,30.01,SW,214,5.8,5.8,88,0.00,CLR,,0.00,WeatherDisplay:10.37,2013-06-27 04:11:00,
2013-06-27 00:16:00,73.0,68.9,30.00,SW,220,5.8,0.0,87,0.00,CLR,,0.00,WeatherDisplay:10.37,2013-06-27 04:16:00,
2013-06-27 00:21:00,72.9,69.1,30.01,SSW,211,2.3,2.3,88,0.00,CLR,,0.00,WeatherDisplay:10.37,2013-06-27 04:21:00,
2013-06-27 00:26:00,72.8,69.0,30.01,SSW,206,2.3,0.0,88,0.00,CLR,,0.01,WeatherDisplay:10.37,2013-06-27 04:26:00,
2013-06-27 00:31:00,72.7,69.3,30.01,SSW,194,8.1,8.1,89,0.01,RA,,0.01,WeatherDisplay:10.37,2013-06-27 04:31:00,
2013-06-27 00:36:00,72.6,69.2,30.01,SSW,204,15.0,15.0,89,0.01,RA,,0.01,WeatherDisplay:10.37,2013-06-27 04:36:00,
2013-06-27 00:41:00,72.5,69.1,30.01,SSW,196,10.4,10.4,89,0.01,CLR,,0.01,WeatherDisplay:10.37,2013-06-27 04:41:00,
2013-06-27 00:46:00,72.4,69.0,30.01,SW,226,5.8,5.8,89,0.02,RA,,0.02,WeatherDisplay:10.37,2013-06-27 04:46:00,
2013-06-27 00:51:00,72.3,69.2,30.00,SSW,205,5.8,5.8,90,0.02,RA,,0.02,WeatherDisplay:10.37,2013-06-27 04:51:00,
2013-06-27 00:56:00,72.1,69.0,30.00,SSW,195,3.5,3.5,90,0.02,CLR,,0.02,WeatherDisplay:10.37,2013-06-27 04:56:00,
2013-06-27 01:01:00,72.1,69.0,29.99,WSW,245,2.3,0.0,90,0.02,CLR,,0.02,WeatherDisplay:10.37,2013-06-27 05:01:00,
2013-06-27 01:06:00,72.0,68.9,29.99,SSW,197,5.8,5.8,90,0.02,CLR,,0.02,WeatherDisplay:10.37,2013-06-27 05:06:00,
2013-06-27 01:11:00,71.9,68.8,30.00,SW,220,6.9,0.0,90,0.02,CLR,,0.02,WeatherDisplay:10.37,2013-06-27 05:11:00,
2013-06-27 01:17:00,71.8,69.0,29.99,South,185,8.1,8.1,91,0.02,CLR,,0.02,WeatherDisplay:10.37,2013-06-27 05:17:00,
2013-06-27 01:22:00,71.8,69.0,29.98,SSW,201,6.9,6.9,91,0.02,CLR,,0.02,WeatherDisplay:10.37,2013-06-27 05:22:00,
2013-06-27 01:27:00,71.7,68.9,29.98,SE,139,4.6,4.6,91,0.03,RA,,0.03,WeatherDisplay:10.37,2013-06-27 05:27:00,
2013-06-27 01:32:00,71.7,68.9,29.98,SW,233,1.2,0.0,91,0.02,RA,,0.03,WeatherDisplay:10.37,2013-06-27 05:32:00,
2013-06-27 01:37:00,71.6,69.2,29.98,SW,227,5.8,5.8,92,0.02,CLR,,0.03,WeatherDisplay:10.37,2013-06-27 05:37:00,
2013-06-27 01:42:00,71.6,69.2,29.98,SW,231,1.3,1.5,92,0.02,CLR,,0.03,WeatherDisplay:10.37,2013-06-27 05:42:00,
2013-06-27 01:47:00,71.6,69.2,29.98,SSW,208,3.5,3.5,92,0.01,CLR,,0.03,WeatherDisplay:10.37,2013-06-27 05:47:00,
2013-06-27 01:52:00,71.5,69.1,29.98,SW,234,0.0,0.1,92,0.01,CLR,,0.03,WeatherDisplay:10.37,2013-06-27 05:52:00,
2013-06-27 01:57:00,71.5,69.1,29.98,SSW,200,10.4,10.4,92,0.01,CLR,,0.03,WeatherDisplay:10.37,2013-06-27 05:57:00,
2013-06-27 02:02:00,71.5,69.1,29.98,SSW,212,0.0,3.4,92,0.01,CLR,,0.03,WeatherDisplay:10.37,2013-06-27 06:02:00,
2013-06-27 02:07:00,71.4,69.0,29.98,SW,223,1.2,1.2,92,0.01,CLR,,0.03,WeatherDisplay:10.37,2013-06-27 06:07:00,
2013-06-27 02:12:00,71.5,69.1,29.98,SW,222,2.3,2.3,92,0.01,CLR,,0.03,WeatherDisplay:10.37,2013-06-27 06:12:00,
2013-06-27 02:17:00,71.5,69.1,29.98,SSW,205,2.3,2.3,92,0.01,CLR,,0.03,WeatherDisplay:10.37,2013-06-27 06:17:00,
2013-06-27 02:22:00,71.5,69.1,29.98,SSW,210,6.9,6.9,92,0.01,CLR,,0.03,WeatherDisplay:10.37,2013-06-27 06:22:00,
2013-06-27 02:27:00,71.4,69.0,29.98,South,190,4.6,4.6,92,0.00,CLR,,0.03,WeatherDisplay:10.37,2013-06-27 06:27:00,
2013-06-27 02:32:00,71.4,69.0,29.97,SSW,199,6.9,6.9,92,0.00,CLR,,0.03,WeatherDisplay:10.37,2013-06-27 06:32:00,
2013-06-27 02:37:00,71.4,69.0,29.97,SSW,200,1.2,1.2,92,0.00,CLR,,0.03,WeatherDisplay:10.37,2013-06-27 06:37:00,
2013-06-27 02:42:00,71.4,69.0,29.97,SW,229,5.8,5.8,92,0.00,CLR,,0.03,WeatherDisplay:10.37,2013-06-27 06:42:00,
2013-06-27 02:47:00,71.4,69.0,29.96,SSW,205,0.0,0.0,92,0.00,CLR,,0.03,WeatherDisplay:10.37,2013-06-27 06:47:00,
2013-06-27 02:52:00,71.4,69.0,29.96,SSW,194,6.9,6.9,92,0.00,CLR,,0.03,WeatherDisplay:10.37,2013-06-27 06:52:00,
2013-06-27 02:57:00,71.4,69.0,29.95,SSW,192,2.3,2.3,92,0.00,CLR,,0.03,WeatherDisplay:10.37,2013-06-27 06:57:00,
2013-06-27 03:02:00,71.3,68.9,29.95,SSW,204,1.2,0.0,92,0.00,CLR,,0.03,WeatherDisplay:10.37,2013-06-27 07:02:00,
2013-06-27 03:07:00,71.3,68.9,29.95,SSW,204,0.0,0.0,92,0.00,CLR,,0.03,WeatherDisplay:10.37,2013-06-27 07:07:00,
2013-06-27 03:12:00,71.3,68.9,29.94,SSW,206,0.0,0.0,92,0.00,CLR,,0.03,WeatherDisplay:10.37,2013-06-27 07:12:00,
2013-06-27 03:30:00,71.1,69.0,29.94,SW,219,8.0,20.0,93,0.29,RA,RA,0.35,WeatherDisplay:10.37,2013-06-27 07:30:00,
2013-06-27 03:35:00,70.9,68.5,29.93,SW,223,2.3,2.3,92,0.34,RA,,0.37,WeatherDisplay:10.37,2013-06-27 07:35:00,
2013-06-27 03:40:00,70.6,68.2,29.94,WNW,288,20.7,20.7,92,0.34,RA,,0.37,WeatherDisplay:10.37,2013-06-27 07:40:00,
2013-06-27 03:50:00,69.6,66.5,29.93,SE,146,17.3,17.3,90,0.35,RA,,0.38,WeatherDisplay:10.37,2013-06-27 07:50:00,
2013-06-27 03:55:00,69.3,66.6,29.93,WSW,256,1.2,0.0,91,0.36,RA,,0.39,WeatherDisplay:10.37,2013-06-27 07:55:00,
2013-06-27 04:00:00,69.1,66.7,29.93,SW,221,8.1,8.1,92,0.36,RA,,0.39,WeatherDisplay:10.37,2013-06-27 08:00:00,
2013-06-27 04:14:00,68.8,66.7,29.94,SSE,159,5.8,5.8,93,0.40,RA,,0.43,WeatherDisplay:10.37,2013-06-27 08:14:00,
2013-06-27 04:19:00,68.7,66.6,29.94,SW,214,11.5,11.5,93,0.39,RA,,0.44,WeatherDisplay:10.37,2013-06-27 08:19:00,
2013-06-27 04:24:00,68.7,66.6,29.94,SSW,212,10.4,10.4,93,0.27,RA,,0.45,WeatherDisplay:10.37,2013-06-27 08:24:00,
2013-06-27 04:29:00,68.7,66.6,29.94,SSE,156,8.1,8.1,93,0.12,RA,,0.45,WeatherDisplay:10.37,2013-06-27 08:29:00,
2013-06-27 04:34:00,68.7,66.6,29.94,SSW,200,0.0,0.0,93,0.08,CLR,,0.45,WeatherDisplay:10.37,2013-06-27 08:34:00,
2013-06-27 04:39:00,68.7,66.6,29.93,South,172,0.0,0.0,93,0.08,CLR,,0.45,WeatherDisplay:10.37,2013-06-27 08:39:00,
2013-06-27 04:44:00,68.7,66.6,29.93,South,171,0.0,0.0,93,0.07,CLR,,0.45,WeatherDisplay:10.37,2013-06-27 08:44:00,
2013-06-27 04:49:00,68.7,66.9,29.93,South,171,0.0,0.0,94,0.07,CLR,,0.45,WeatherDisplay:10.37,2013-06-27 08:49:00,
2013-06-27 04:54:00,68.7,66.9,29.93,South,184,1.1,0.0,94,0.06,CLR,,0.45,WeatherDisplay:10.37,2013-06-27 08:54:00,
2013-06-27 05:04:00,68.8,67.0,29.93,South,186,3.5,3.5,94,0.06,CLR,,0.45,WeatherDisplay:10.37,2013-06-27 09:04:00,
2013-06-27 05:09:00,68.9,67.1,29.94,South,186,0.0,0.0,94,0.06,CLR,,0.45,WeatherDisplay:10.37,2013-06-27 09:09:00,
2013-06-27 05:14:00,69.0,67.2,29.94,South,186,1.2,1.2,94,0.02,CLR,,0.45,WeatherDisplay:10.37,2013-06-27 09:14:00,
2013-06-27 05:19:00,69.1,67.3,29.94,South,186,0.0,0.0,94,0.01,CLR,,0.45,WeatherDisplay:10.37,2013-06-27 09:19:00,
2013-06-27 05:24:00,69.0,67.2,29.94,South,186,0.0,0.0,94,0.00,CLR,,0.45,WeatherDisplay:10.37,2013-06-27 09:24:00,
2013-06-27 05:29:00,68.8,66.7,29.94,South,186,0.0,0.0,93,0.00,CLR,,0.45,WeatherDisplay:10.37,2013-06-27 09:29:00,
2013-06-27 05:34:00,68.5,66.4,29.94,South,186,0.0,0.0,93,0.00,CLR,,0.45,WeatherDisplay:10.37,2013-06-27 09:34:00,
2013-06-27 05:39:00,68.4,66.3,29.94,NE,42,2.3,0.0,93,0.00,CLR,,0.45,WeatherDisplay:10.37,2013-06-27 09:39:00,
2013-06-27 05:44:00,68.2,66.1,29.93,ESE,114,4.4,4.4,93,0.00,CLR,,0.45,WeatherDisplay:10.37,2013-06-27 09:44:00,
2013-06-27 05:45:00,68.2,66.1,29.93,SSE,150,4.6,4.6,93,0.00,CLR,,0.45,WeatherDisplay:10.37,2013-06-27 09:45:00,
2013-06-27 05:50:00,68.3,66.5,29.94,SE,139,1.2,0.0,94,0.00,CLR,,0.45,WeatherDisplay:10.37,2013-06-27 09:50:00,
2013-06-27 05:55:00,68.3,66.5,29.93,ENE,76,4.6,4.6,94,0.00,CLR,,0.45,WeatherDisplay:10.37,2013-06-27 09:55:00,
2013-06-27 06:00:00,68.3,66.5,29.94,SE,146,1.1,1.1,94,0.00,CLR,,0.45,WeatherDisplay:10.37,2013-06-27 10:00:00,
2013-06-27 06:05:00,68.2,66.4,29.94,SE,144,0.0,0.0,94,0.00,CLR,,0.45,WeatherDisplay:10.37,2013-06-27 10:05:00,
2013-06-27 06:10:00,68.2,66.4,29.93,SE,144,0.0,0.0,94,0.00,CLR,,0.45,WeatherDisplay:10.37,2013-06-27 10:10:00,
2013-06-27 06:15:00,68.2,66.4,29.93,SE,144,0.0,0.0,94,0.00,CLR,,0.45,WeatherDisplay:10.37,2013-06-27 10:15:00,
2013-06-27 06:20:00,68.3,66.5,29.93,SSE,160,1.2,0.0,94,0.00,CLR,,0.45,WeatherDisplay:10.37,2013-06-27 10:20:00,
2013-06-27 06:25:00,68.4,66.9,29.93,South,178,5.8,5.8,95,0.00,CLR,,0.45,WeatherDisplay:10.37,2013-06-27 10:25:00,
2013-06-27 06:30:00,68.6,67.1,29.92,South,179,0.0,0.0,95,0.01,RA,,0.48,WeatherDisplay:10.37,2013-06-27 10:30:00,
2013-06-27 06:35:00,68.4,66.9,29.93,SSW,204,0.0,1.0,95,0.06,RA,,0.51,WeatherDisplay:10.37,2013-06-27 10:35:00,
2013-06-27 06:40:00,68.5,67.0,29.93,SW,235,0.0,0.0,95,0.07,RA,,0.52,WeatherDisplay:10.37,2013-06-27 10:40:00,
2013-06-27 06:45:00,68.1,66.3,29.93,WSW,245,0.0,0.0,94,0.07,RA,,0.52,WeatherDisplay:10.37,2013-06-27 10:45:00,
2013-06-27 06:51:00,67.7,65.9,29.93,WSW,245,0.0,0.0,94,0.07,CLR,,0.52,WeatherDisplay:10.37,2013-06-27 10:51:00,
2013-06-27 06:56:00,68.0,66.2,29.93,SW,223,0.0,0.0,94,0.07,CLR,,0.52,WeatherDisplay:10.37,2013-06-27 10:56:00,
2013-06-27 07:01:00,68.3,66.8,29.93,SW,227,1.2,1.2,95,0.07,CLR,,0.53,WeatherDisplay:10.37,2013-06-27 11:01:00,
2013-06-27 07:06:00,68.7,67.2,29.93,SSW,198,1.2,0.0,95,0.08,RA,,0.53,WeatherDisplay:10.37,2013-06-27 11:06:00,
2013-06-27 07:11:00,68.9,67.4,29.93,SW,233,8.1,8.1,95,0.09,RA,,0.54,WeatherDisplay:10.37,2013-06-27 11:11:00,
2013-06-27 07:16:00,69.1,67.6,29.93,SW,218,0.0,0.0,95,0.13,RA,,0.61,WeatherDisplay:10.37,2013-06-27 11:16:00,
2013-06-27 07:21:00,69.3,67.8,29.93,SW,218,3.5,3.5,95,0.16,RA,,0.62,WeatherDisplay:10.37,2013-06-27 11:21:00,
2013-06-27 07:26:00,69.4,67.9,29.93,North,6,0.0,0.4,95,0.18,RA,,0.63,WeatherDisplay:10.37,2013-06-27 11:26:00,
2013-06-27 07:31:00,69.4,67.9,29.93,SW,236,0.0,0.0,95,0.18,RA,,0.63,WeatherDisplay:10.37,2013-06-27 11:31:00,
2013-06-27 07:36:00,69.5,68.0,29.93,WSW,237,8.1,8.1,95,0.13,RA,,0.63,WeatherDisplay:10.37,2013-06-27 11:36:00,
2013-06-27 07:41:00,69.5,68.0,29.93,SW,220,9.2,9.2,95,0.11,CLR,,0.63,WeatherDisplay:10.37,2013-06-27 11:41:00,
2013-06-27 07:46:00,69.5,68.0,29.93,WSW,241,0.0,0.1,95,0.11,,,0.63,WeatherDisplay:10.37,2013-06-27 11:46:00,
2013-06-27 07:51:00,69.6,68.1,29.93,SW,221,8.1,8.1,95,0.11,,,0.63,WeatherDisplay:10.37,2013-06-27 11:51:00,
2013-06-27 07:56:00,69.7,68.2,29.93,SW,219,0.0,0.9,95,0.11,,,0.63,WeatherDisplay:10.37,2013-06-27 11:56:00,
2013-06-27 08:01:00,69.7,68.2,29.93,SSW,211,2.3,0.0,95,0.11,,,0.63,WeatherDisplay:10.37,2013-06-27 12:01:00,
2013-06-27 08:06:00,69.7,68.2,29.92,SSW,212,5.8,5.8,95,0.10,,,0.63,WeatherDisplay:10.37,2013-06-27 12:06:00,
2013-06-27 08:11:00,69.7,68.2,29.92,SW,223,11.5,11.5,95,0.09,,,0.63,WeatherDisplay:10.37,2013-06-27 12:11:00,
2013-06-27 08:16:00,69.8,68.3,29.93,SW,219,3.5,0.0,95,0.07,,,0.63,WeatherDisplay:10.37,2013-06-27 12:16:00,
2013-06-27 08:21:00,69.8,68.3,29.93,WSW,238,11.5,11.5,95,0.02,,,0.63,WeatherDisplay:10.37,2013-06-27 12:21:00,
2013-06-27 08:26:00,69.8,68.3,29.93,SSW,206,11.5,11.5,95,0.01,,,0.63,WeatherDisplay:10.37,2013-06-27 12:26:00,
2013-06-27 08:31:00,69.7,68.2,29.94,WSW,239,10.4,10.4,95,0.00,,,0.63,WeatherDisplay:10.37,2013-06-27 12:31:00,
2013-06-27 08:36:00,69.7,68.2,29.93,SSW,196,8.1,8.1,95,0.00,,,0.63,WeatherDisplay:10.37,2013-06-27 12:36:00,
2013-06-27 08:41:00,69.8,68.3,29.94,SSW,201,6.9,6.9,95,0.00,,,0.63,WeatherDisplay:10.37,2013-06-27 12:41:00,
2013-06-27 08:46:00,69.8,68.3,29.94,SSW,208,2.3,2.3,95,0.00,,,0.63,WeatherDisplay:10.37,2013-06-27 12:46:00,
2013-06-27 08:51:00,69.9,68.4,29.93,SSW,192,10.4,10.4,95,0.00,,,0.63,WeatherDisplay:10.37,2013-06-27 12:51:00,
2013-06-27 08:56:00,70.1,68.6,29.93,SSW,199,11.5,11.5,95,0.00,,,0.63,WeatherDisplay:10.37,2013-06-27 12:56:00,
2013-06-27 09:01:00,70.2,68.7,29.93,SSW,201,13.8,13.8,95,0.00,,,0.63,WeatherDisplay:10.37,2013-06-27 13:01:00,
2013-06-27 09:06:00,70.2,68.7,29.93,SSW,211,6.9,6.9,95,0.00,,,0.63,WeatherDisplay:10.37,2013-06-27 13:06:00,
2013-06-27 09:11:00,70.2,68.7,29.93,SSW,201,6.9,6.9,95,0.00,,,0.63,WeatherDisplay:10.37,2013-06-27 13:11:00,
2013-06-27 09:16:00,70.2,68.7,29.93,SSW,207,0.0,0.0,95,0.00,RA,,0.63,WeatherDisplay:10.37,2013-06-27 13:16:00,
2013-06-27 09:21:00,70.3,68.8,29.93,SSW,205,9.2,9.2,95,0.00,RA,,0.63,WeatherDisplay:10.37,2013-06-27 13:21:00,
2013-06-27 09:27:00,70.3,68.8,29.93,SSW,199,8.7,8.7,95,0.00,CLR,,0.63,WeatherDisplay:10.37,2013-06-27 13:27:00,
2013-06-27 09:32:00,70.1,68.6,29.93,SSW,196,15.0,15.0,95,0.00,CLR,,0.63,WeatherDisplay:10.37,2013-06-27 13:32:00,
2013-06-27 09:37:00,70.1,68.6,29.93,South,187,6.9,6.9,95,0.00,CLR,,0.63,WeatherDisplay:10.37,2013-06-27 13:37:00,
2013-06-27 09:42:00,70.1,68.6,29.93,SW,230,10.4,10.4,95,0.00,CLR,,0.63,WeatherDisplay:10.37,2013-06-27 13:42:00,
2013-06-27 09:47:00,70.2,68.7,29.93,South,191,6.9,6.9,95,0.00,CLR,,0.63,WeatherDisplay:10.37,2013-06-27 13:47:00,
2013-06-27 09:52:00,70.2,68.7,29.93,SW,214,10.4,10.4,95,0.00,CLR,,0.63,WeatherDisplay:10.37,2013-06-27 13:52:00,
2013-06-27 09:57:00,70.4,68.9,29.92,SW,225,10.4,10.4,95,0.00,CLR,,0.63,WeatherDisplay:10.37,2013-06-27 13:57:00,
2013-06-27 10:03:00,70.4,68.6,29.93,SW,218,5.8,5.8,94,0.00,CLR,,0.63,WeatherDisplay:10.37,2013-06-27 14:03:00,
2013-06-27 10:08:00,70.4,68.6,29.93,SW,236,17.3,17.3,94,0.00,CLR,,0.63,WeatherDisplay:10.37,2013-06-27 14:08:00,
2013-06-27 10:13:00,70.4,68.6,29.93,SW,220,10.4,10.4,94,0.00,CLR,,0.63,WeatherDisplay:10.37,2013-06-27 14:13:00,
2013-06-27 10:18:00,70.5,68.7,29.93,WSW,241,5.3,0.0,94,0.00,CLR,,0.63,WeatherDisplay:10.37,2013-06-27 14:18:00,
2013-06-27 10:23:00,70.5,68.7,29.93,SW,226,8.1,8.7,94,0.00,CLR,,0.63,WeatherDisplay:10.37,2013-06-27 14:23:00,
2013-06-27 10:28:00,70.6,68.8,29.93,SW,235,10.6,10.6,94,0.00,CLR,,0.63,WeatherDisplay:10.37,2013-06-27 14:28:00,
2013-06-27 10:33:00,70.6,68.8,29.92,SSW,194,11.5,11.5,94,0.00,CLR,,0.63,WeatherDisplay:10.37,2013-06-27 14:33:00,
2013-06-27 10:38:00,70.6,68.8,29.93,West,266,8.1,8.1,94,0.00,CLR,,0.63,WeatherDisplay:10.37,2013-06-27 14:38:00,
2013-06-27 10:43:00,70.7,68.9,29.93,South,182,5.4,5.4,94,0.00,CLR,,0.63,WeatherDisplay:10.37,2013-06-27 14:43:00,
2013-06-27 10:48:00,70.8,69.0,29.92,SW,216,3.5,5.1,94,0.00,CLR,,0.63,WeatherDisplay:10.37,2013-06-27 14:48:00,
2013-06-27 10:53:00,70.9,69.1,29.92,SE,144,8.1,8.1,94,0.00,CLR,,0.63,WeatherDisplay:10.37,2013-06-27 14:53:00,
2013-06-27 10:58:00,71.0,69.2,29.92,SSW,194,13.8,13.8,94,0.00,CLR,,0.63,WeatherDisplay:10.37,2013-06-27 14:58:00,
2013-06-27 11:03:00,71.1,69.0,29.93,SW,227,10.6,10.6,93,0.00,CLR,,0.63,WeatherDisplay:10.37,2013-06-27 15:03:00,
2013-06-27 11:08:00,71.1,69.0,29.92,SW,215,11.5,11.5,93,0.00,CLR,,0.63,WeatherDisplay:10.37,2013-06-27 15:08:00,
2013-06-27 11:13:00,71.1,69.0,29.93,SW,220,5.8,5.8,93,0.00,CLR,,0.63,WeatherDisplay:10.37,2013-06-27 15:13:00,
2013-06-27 11:18:00,71.2,68.8,29.92,South,190,10.4,10.4,92,0.00,CLR,,0.63,WeatherDisplay:10.37,2013-06-27 15:18:00,
2013-06-27 11:23:00,71.2,68.8,29.92,SW,235,6.9,6.9,92,0.00,CLR,,0.63,WeatherDisplay:10.37,2013-06-27 15:23:00,
2013-06-27 11:28:00,71.2,68.8,29.92,SW,232,9.2,9.2,92,0.00,CLR,,0.63,WeatherDisplay:10.37,2013-06-27 15:28:00,
2013-06-27 11:33:00,71.2,68.8,29.92,SSW,197,6.9,6.9,92,0.00,CLR,,0.63,WeatherDisplay:10.37,2013-06-27 15:33:00,
2013-06-27 11:38:00,71.3,68.9,29.92,SW,220,15.0,15.0,92,0.00,CLR,,0.63,WeatherDisplay:10.37,2013-06-27 15:38:00,
2013-06-27 11:43:00,71.4,69.0,29.92,SSW,204,10.4,10.4,92,0.00,CLR,,0.63,WeatherDisplay:10.37,2013-06-27 15:43:00,
2013-06-27 11:48:00,71.5,69.1,29.92,SW,230,9.3,9.3,92,0.00,CLR,,0.63,WeatherDisplay:10.37,2013-06-27 15:48:00,
2013-06-27 11:53:00,71.6,69.2,29.92,SSW,202,4.6,4.6,92,0.00,CLR,,0.63,WeatherDisplay:10.37,2013-06-27 15:53:00,
2013-06-27 11:58:00,71.8,69.3,29.92,SSW,212,13.8,13.8,92,0.00,CLR,,0.63,WeatherDisplay:10.37,2013-06-27 15:58:00,
2013-06-27 12:03:00,72.0,69.5,29.92,SSW,207,13.8,13.8,92,0.00,CLR,,0.63,WeatherDisplay:10.37,2013-06-27 16:03:00,
2013-06-27 12:08:00,72.1,69.3,29.92,SW,216,9.2,9.2,91,0.00,CLR,,0.63,WeatherDisplay:10.37,2013-06-27 16:08:00,
2013-06-27 12:13:00,72.2,69.4,29.92,SW,216,8.1,8.1,91,0.00,CLR,,0.63,WeatherDisplay:10.37,2013-06-27 16:13:00,
2013-06-27 12:18:00,72.3,69.5,29.92,SSW,198,8.1,8.1,91,0.00,CLR,,0.63,WeatherDisplay:10.37,2013-06-27 16:18:00,
2013-06-27 12:23:00,72.4,69.6,29.91,SSW,203,5.8,5.8,91,0.00,CLR,,0.63,WeatherDisplay:10.37,2013-06-27 16:23:00,
2013-06-27 12:28:00,72.5,69.4,29.91,SSW,206,5.8,5.8,90,0.00,CLR,,0.63,WeatherDisplay:10.37,2013-06-27 16:28:00,
2013-06-27 12:33:00,72.5,69.7,29.91,SSW,195,9.2,9.2,91,0.00,CLR,,0.63,WeatherDisplay:10.37,2013-06-27 16:33:00,
2013-06-27 12:38:00,72.6,69.8,29.91,SW,219,9.2,9.2,91,0.00,CLR,,0.63,WeatherDisplay:10.37,2013-06-27 16:38:00,
2013-06-27 12:43:00,72.7,69.9,29.91,SSW,211,9.2,9.2,91,0.00,CLR,,0.63,WeatherDisplay:10.37,2013-06-27 16:43:00,
2013-06-27 12:48:00,72.8,70.0,29.91,SW,233,8.1,8.1,91,0.00,CLR,,0.63,WeatherDisplay:10.37,2013-06-27 16:48:00,
2013-06-27 12:53:00,72.9,70.1,29.91,SW,217,9.2,9.2,91,0.00,CLR,,0.63,WeatherDisplay:10.37,2013-06-27 16:53:00,
2013-06-27 12:58:00,73.2,70.4,29.91,South,182,17.3,17.3,91,0.00,CLR,,0.63,WeatherDisplay:10.37,2013-06-27 16:58:00,
2013-06-27 13:03:00,73.5,70.4,29.91,SW,218,6.9,6.9,90,0.00,CLR,,0.63,WeatherDisplay:10.37,2013-06-27 17:03:00,
2013-06-27 13:08:00,73.6,70.5,29.91,SSW,210,10.4,10.4,90,0.00,CLR,,0.63,WeatherDisplay:10.37,2013-06-27 17:08:00,
2013-06-27 13:13:00,73.7,70.6,29.91,WSW,237,19.6,19.6,90,0.00,CLR,,0.63,WeatherDisplay:10.37,2013-06-27 17:13:00,
2013-06-27 13:18:00,73.9,70.8,29.91,SSW,207,10.9,10.9,90,0.00,CLR,,0.63,WeatherDisplay:10.37,2013-06-27 17:18:00,
2013-06-27 13:23:00,74.3,71.2,29.91,SSW,197,18.4,18.4,90,0.00,CLR,,0.63,WeatherDisplay:10.37,2013-06-27 17:23:00,
2013-06-27 13:28:00,74.6,71.1,29.90,SW,220,13.8,13.8,89,0.00,CLR,,0.63,WeatherDisplay:10.37,2013-06-27 17:28:00,
2013-06-27 13:33:00,74.8,70.7,29.90,SW,220,25.3,25.3,87,0.00,CLR,,0.63,WeatherDisplay:10.37,2013-06-27 17:33:00,
2013-06-27 13:38:00,74.9,71.1,29.91,SW,218,10.4,10.4,88,0.00,CLR,,0.63,WeatherDisplay:10.37,2013-06-27 17:38:00,
2013-06-27 13:43:00,75.1,71.3,29.90,SW,235,18.4,18.4,88,0.00,CLR,,0.63,WeatherDisplay:10.37,2013-06-27 17:43:00,
2013-06-27 13:48:00,75.3,71.2,29.90,SW,229,17.3,17.3,87,0.00,CLR,,0.63,WeatherDisplay:10.37,2013-06-27 17:48:00,
2013-06-27 13:53:00,75.2,70.7,29.91,SW,231,2.3,2.3,86,0.00,CLR,,0.63,WeatherDisplay:10.37,2013-06-27 17:53:00,
2013-06-27 13:58:00,75.0,70.5,29.90,SW,216,16.1,16.1,86,0.00,CLR,,0.63,WeatherDisplay:10.37,2013-06-27 17:58:00,
2013-06-27 14:03:00,75.0,71.2,29.90,SSW,206,5.8,5.8,88,0.00,CLR,,0.63,WeatherDisplay:10.37,2013-06-27 18:03:00,
2013-06-27 14:09:00,75.1,71.0,29.90,SW,224,15.0,15.0,87,0.00,CLR,,0.63,WeatherDisplay:10.37,2013-06-27 18:09:00,
2013-06-27 14:14:00,75.2,71.1,29.90,SW,236,9.2,9.2,87,0.00,CLR,,0.63,WeatherDisplay:10.37,2013-06-27 18:14:00,
2013-06-27 14:19:00,75.3,70.8,29.90,WSW,241,11.5,11.5,86,0.00,CLR,,0.63,WeatherDisplay:10.37,2013-06-27 18:19:00,
2013-06-27 14:24:00,75.4,70.9,29.90,SSW,208,10.4,10.4,86,0.00,CLR,,0.63,WeatherDisplay:10.37,2013-06-27 18:24:00,
2013-06-27 14:29:00,75.7,71.2,29.90,WSW,240,13.8,13.8,86,0.00,CLR,,0.63,WeatherDisplay:10.37,2013-06-27 18:29:00,
2013-06-27 14:34:00,75.8,71.0,29.90,West,264,16.1,16.1,85,0.00,CLR,,0.63,WeatherDisplay:10.37,2013-06-27 18:34:00,
2013-06-27 14:39:00,75.9,71.1,29.90,SSW,210,11.5,11.5,85,0.00,CLR,,0.63,WeatherDisplay:10.37,2013-06-27 18:39:00,
2013-06-27 14:44:00,75.9,71.1,29.90,South,191,8.1,8.1,85,0.00,CLR,,0.63,WeatherDisplay:10.37,2013-06-27 18:44:00,
2013-06-27 14:49:00,75.8,70.6,29.90,WSW,237,3.5,3.5,84,0.00,CLR,,0.63,WeatherDisplay:10.37,2013-06-27 18:49:00,
2013-06-27 14:54:00,75.7,71.2,29.90,SW,220,3.5,3.5,86,0.00,CLR,,0.63,WeatherDisplay:10.37,2013-06-27 18:54:00,
2013-06-27 14:59:00,75.6,70.8,29.90,WSW,238,6.9,6.9,85,0.00,CLR,,0.63,WeatherDisplay:10.37,2013-06-27 18:59:00,
2013-06-27 15:04:00,75.6,71.1,29.90,SSW,195,3.3,3.3,86,0.00,CLR,,0.63,WeatherDisplay:10.37,2013-06-27 19:04:00,
2013-06-27 15:09:00,75.7,71.6,29.89,SSW,206,10.4,10.4,87,0.00,CLR,,0.63,WeatherDisplay:10.37,2013-06-27 19:09:00,
2013-06-27 15:14:00,75.9,72.1,29.89,SSW,212,10.4,10.4,88,0.00,CLR,,0.63,WeatherDisplay:10.37,2013-06-27 19:14:00,
2013-06-27 15:19:00,76.0,71.2,29.89,SW,235,10.4,10.4,85,0.00,CLR,,0.63,WeatherDisplay:10.37,2013-06-27 19:19:00,
2013-06-27 15:24:00,75.9,71.1,29.89,SW,229,5.8,5.8,85,0.00,CLR,,0.63,WeatherDisplay:10.37,2013-06-27 19:24:00,
2013-06-27 15:29:00,75.9,71.1,29.89,SSW,202,9.2,9.2,85,0.00,CLR,,0.63,WeatherDisplay:10.37,2013-06-27 19:29:00,
2013-06-27 15:39:00,75.8,71.0,29.88,SW,221,10.4,10.4,85,0.00,CLR,,0.63,WeatherDisplay:10.37,2013-06-27 19:39:00,
2013-06-27 15:44:00,75.9,71.1,29.88,SW,231,5.8,5.8,85,0.00,CLR,,0.63,WeatherDisplay:10.37,2013-06-27 19:44:00,
2013-06-27 15:49:00,76.0,71.2,29.88,SW,227,11.5,11.5,85,0.00,CLR,,0.63,WeatherDisplay:10.37,2013-06-27 19:49:00,
2013-06-27 15:54:00,76.0,71.2,29.87,West,260,8.1,8.1,85,0.00,CLR,,0.63,WeatherDisplay:10.37,2013-06-27 19:54:00,
2013-06-27 15:59:00,76.1,71.3,29.87,SW,225,16.1,16.1,85,0.00,CLR,,0.63,WeatherDisplay:10.37,2013-06-27 19:59:00,
2013-06-27 16:04:00,76.2,71.4,29.87,SSW,203,3.5,3.5,85,0.00,CLR,,0.63,WeatherDisplay:10.37,2013-06-27 20:04:00,
2013-06-27 16:09:00,76.4,71.6,29.87,WSW,245,5.8,5.8,85,0.00,CLR,,0.63,WeatherDisplay:10.37,2013-06-27 20:09:00,
2013-06-27 16:14:00,76.7,71.8,29.87,SW,219,2.3,2.3,85,0.00,CLR,,0.63,WeatherDisplay:10.37,2013-06-27 20:14:00,
2013-06-27 16:19:00,76.8,71.6,29.87,SW,228,1.2,1.2,84,0.00,CLR,,0.63,WeatherDisplay:10.37,2013-06-27 20:19:00,
2013-06-27 16:24:00,77.1,71.5,29.87,SW,231,5.8,5.8,83,0.00,CLR,,0.63,WeatherDisplay:10.37,2013-06-27 20:24:00,
2013-06-27 16:29:00,77.4,72.2,29.87,West,279,5.8,5.8,84,0.00,CLR,,0.63,WeatherDisplay:10.37,2013-06-27 20:29:00,
2013-06-27 16:34:00,77.7,72.1,29.86,SSW,204,5.8,5.8,83,0.00,CLR,,0.63,WeatherDisplay:10.37,2013-06-27 20:34:00,
2013-06-27 16:39:00,78.1,72.5,29.85,SSW,200,9.2,9.2,83,0.00,CLR,,0.63,WeatherDisplay:10.37,2013-06-27 20:39:00,
2013-06-27 16:44:00,78.3,72.0,29.86,SW,226,1.2,1.2,81,0.00,CLR,,0.63,WeatherDisplay:10.37,2013-06-27 20:44:00,
2013-06-27 16:49:00,78.4,72.1,29.85,WSW,256,6.5,6.5,81,0.00,CLR,,0.63,WeatherDisplay:10.37,2013-06-27 20:49:00,
2013-06-27 16:54:00,78.6,72.3,29.85,SW,230,8.1,8.1,81,0.00,CLR,,0.63,WeatherDisplay:10.37,2013-06-27 20:54:00,
2013-06-27 16:59:00,78.7,72.4,29.85,SW,234,2.7,2.7,81,0.00,CLR,,0.63,WeatherDisplay:10.37,2013-06-27 20:59:00,
2013-06-27 17:04:00,78.7,72.7,29.85,SW,234,1.2,0.0,82,0.00,CLR,,0.63,WeatherDisplay:10.37,2013-06-27 21:04:00,
2013-06-27 17:09:00,78.8,72.5,29.85,NW,322,9.2,9.2,81,0.00,CLR,,0.63,WeatherDisplay:10.37,2013-06-27 21:09:00,
2013-06-27 17:15:00,79.0,72.7,29.85,South,187,1.2,1.2,81,0.00,CLR,,0.63,WeatherDisplay:10.37,2013-06-27 21:15:00,
2013-06-27 17:20:00,79.1,72.8,29.85,WSW,241,1.2,1.3,81,0.00,CLR,,0.63,WeatherDisplay:10.37,2013-06-27 21:20:00,
2013-06-27 17:25:00,79.2,72.1,29.84,West,273,0.0,0.2,79,0.00,CLR,,0.63,WeatherDisplay:10.37,2013-06-27 21:25:00,
2013-06-27 17:30:00,79.2,72.1,29.84,WSW,256,5.8,5.8,79,0.00,CLR,,0.63,WeatherDisplay:10.37,2013-06-27 21:30:00,
2013-06-27 17:35:00,79.4,73.1,29.84,SW,218,1.2,1.2,81,0.00,CLR,,0.63,WeatherDisplay:10.37,2013-06-27 21:35:00,
2013-06-27 17:40:00,79.6,72.9,29.85,SW,229,1.2,1.2,80,0.00,CLR,,0.63,WeatherDisplay:10.37,2013-06-27 21:40:00,
2013-06-27 17:45:00,79.7,72.6,29.84,WSW,243,2.3,2.3,79,0.00,CLR,,0.63,WeatherDisplay:10.37,2013-06-27 21:45:00,
2013-06-27 17:50:00,80.0,73.3,29.84,NW,326,1.1,1.1,80,0.00,CLR,,0.63,WeatherDisplay:10.37,2013-06-27 21:50:00,
2013-06-27 17:55:00,80.0,70.6,29.84,SW,228,3.0,10.0,73,0.00,CLR,CLR,0.63,WeatherDisplay:10.37,2013-06-27 21:55:00,
2013-06-27 18:00:00,79.9,70.5,29.84,WNW,293,3.5,3.5,73,0.00,CLR,,0.63,WeatherDisplay:10.37,2013-06-27 22:00:00,
2013-06-27 18:05:00,79.7,69.9,29.84,North,351,2.3,2.3,72,0.00,CLR,,0.63,WeatherDisplay:10.37,2013-06-27 22:05:00,
2013-06-27 18:11:00,79.5,70.1,29.84,WNW,300,2.2,2.2,73,0.00,CLR,,0.63,WeatherDisplay:10.37,2013-06-27 22:11:00,
2013-06-27 18:16:00,79.3,69.9,29.84,NW,308,1.2,0.0,73,0.00,CLR,,0.63,WeatherDisplay:10.37,2013-06-27 22:16:00,
2013-06-27 18:21:00,79.0,69.6,29.84,NNW,329,0.0,0.0,73,0.00,CLR,,0.63,WeatherDisplay:10.37,2013-06-27 22:21:00,
2013-06-27 18:26:00,78.8,70.2,29.84,NW,322,0.0,0.0,75,0.00,CLR,,0.63,WeatherDisplay:10.37,2013-06-27 22:26:00,
2013-06-27 18:31:00,78.5,69.5,29.85,NW,322,0.0,0.0,74,0.00,CLR,,0.63,WeatherDisplay:10.37,2013-06-27 22:31:00,
2013-06-27 18:36:00,78.3,69.3,29.85,NW,322,0.0,0.0,74,0.00,CLR,,0.63,WeatherDisplay:10.37,2013-06-27 22:36:00,
2013-06-27 18:41:00,78.1,69.1,29.86,SSW,201,8.1,8.1,74,0.00,CLR,,0.63,WeatherDisplay:10.37,2013-06-27 22:41:00,
2013-06-27 18:46:00,77.9,69.3,29.85,South,179,6.9,6.9,75,0.00,CLR,,0.63,WeatherDisplay:10.37,2013-06-27 22:46:00,
2013-06-27 18:51:00,77.7,68.7,29.84,NW,308,3.5,3.5,74,0.00,CLR,,0.63,WeatherDisplay:10.37,2013-06-27 22:51:00,
2013-06-27 18:56:00,77.5,68.6,29.85,West,264,0.0,0.0,74,0.00,CLR,,0.63,WeatherDisplay:10.37,2013-06-27 22:56:00,
2013-06-27 19:01:00,77.3,68.8,29.85,West,266,0.0,0.0,75,0.00,CLR,,0.63,WeatherDisplay:10.37,2013-06-27 23:01:00,
2013-06-27 19:06:00,77.1,68.9,29.85,South,186,3.5,0.0,76,0.00,CLR,,0.63,WeatherDisplay:10.37,2013-06-27 23:06:00,
2013-06-27 19:11:00,76.9,68.8,29.86,South,191,1.2,0.0,76,0.00,CLR,,0.63,WeatherDisplay:10.37,2013-06-27 23:11:00,
2013-06-27 19:16:00,76.8,69.0,29.86,South,191,0.0,0.0,77,0.00,CLR,,0.63,WeatherDisplay:10.37,2013-06-27 23:16:00,
2013-06-27 19:21:00,76.5,69.1,29.85,ENE,75,1.2,0.0,78,0.00,CLR,,0.63,WeatherDisplay:10.37,2013-06-27 23:21:00,
2013-06-27 19:26:00,76.2,68.5,29.87,North,3,13.8,13.8,77,0.00,CLR,,0.63,WeatherDisplay:10.37,2013-06-27 23:26:00,
2013-06-27 19:31:00,75.5,68.5,29.87,ENE,75,5.8,5.8,79,0.00,CLR,,0.63,WeatherDisplay:10.37,2013-06-27 23:31:00,
2013-06-27 19:36:00,74.6,67.3,29.89,SW,234,9.2,9.2,78,0.01,RA,,0.64,WeatherDisplay:10.37,2013-06-27 23:36:00,
2013-06-27 19:42:00,73.2,65.2,29.87,SSE,147,12.7,12.7,76,0.02,RA,,0.65,WeatherDisplay:10.37,2013-06-27 23:42:00,
2013-06-27 19:47:00,71.8,65.7,29.87,WSW,254,11.5,11.5,81,0.02,RA,,0.65,WeatherDisplay:10.37,2013-06-27 23:47:00,
2013-06-27 19:52:00,70.9,64.4,29.86,SSW,212,0.0,0.0,80,0.02,CLR,,0.65,WeatherDisplay:10.37,2013-06-27 23:52:00,
2013-06-27 19:57:00,70.2,64.4,29.87,SSW,212,0.0,0.0,82,0.02,CLR,,0.65,WeatherDisplay:10.37,2013-06-27 23:57:00,
2013-06-27 20:02:00,69.7,64.0,29.87,WNW,284,0.0,0.0,82,0.02,CLR,,0.65,WeatherDisplay:10.37,2013-06-28 00:02:00,
2013-06-27 20:07:00,69.5,64.1,29.86,West,268,3.5,0.0,83,0.02,CLR,,0.65,WeatherDisplay:10.37,2013-06-28 00:07:00,
2013-06-27 20:12:00,69.4,64.4,29.86,SE,141,0.0,0.0,84,0.02,CLR,,0.65,WeatherDisplay:10.37,2013-06-28 00:12:00,
2013-06-27 20:17:00,69.4,64.7,29.85,East,92,0.0,0.0,85,0.02,CLR,,0.65,WeatherDisplay:10.37,2013-06-28 00:17:00,
2013-06-27 20:23:00,69.4,64.4,29.85,East,94,0.0,0.0,84,0.02,CLR,,0.65,WeatherDisplay:10.37,2013-06-28 00:23:00,
2013-06-27 20:28:00,69.4,64.7,29.85,East,93,1.1,0.0,85,0.02,CLR,,0.65,WeatherDisplay:10.37,2013-06-28 00:28:00,
2013-06-27 20:33:00,69.3,64.6,29.86,East,93,0.0,0.0,85,0.01,CLR,,0.65,WeatherDisplay:10.37,2013-06-28 00:33:00,
2013-06-27 20:38:00,69.3,64.9,29.86,East,93,0.0,0.0,86,0.01,CLR,,0.65,WeatherDisplay:10.37,2013-06-28 00:38:00,
2013-06-27 20:43:00,69.3,65.6,29.87,East,93,0.0,0.0,88,0.00,CLR,,0.65,WeatherDisplay:10.37,2013-06-28 00:43:00,
2013-06-27 20:48:00,69.2,65.2,29.88,East,93,0.0,0.0,87,0.00,CLR,,0.65,WeatherDisplay:10.37,2013-06-28 00:48:00,
2013-06-27 20:53:00,68.9,64.9,29.88,East,93,0.0,0.0,87,0.00,CLR,,0.65,WeatherDisplay:10.37,2013-06-28 00:53:00,
2013-06-27 20:58:00,68.7,64.3,29.87,East,93,1.1,0.0,86,0.00,CLR,,0.65,WeatherDisplay:10.37,2013-06-28 00:58:00,
2013-06-27 21:03:00,68.6,64.2,29.88,East,93,0.0,0.0,86,0.00,CLR,,0.65,WeatherDisplay:10.37,2013-06-28 01:03:00,
2013-06-27 21:08:00,68.5,64.1,29.87,East,93,0.0,0.0,86,0.00,CLR,,0.65,WeatherDisplay:10.37,2013-06-28 01:08:00,
2013-06-27 21:13:00,68.5,64.1,29.87,East,93,0.0,0.0,86,0.00,CLR,,0.65,WeatherDisplay:10.37,2013-06-28 01:13:00,
2013-06-27 21:18:00,68.5,64.1,29.88,East,93,0.0,0.0,86,0.00,CLR,,0.65,WeatherDisplay:10.37,2013-06-28 01:18:00,
2013-06-27 21:23:00,68.6,64.6,29.88,East,93,1.2,0.0,87,0.00,CLR,,0.65,WeatherDisplay:10.37,2013-06-28 01:23:00,
2013-06-27 21:28:00,68.6,64.9,29.88,East,93,1.2,0.0,88,0.00,CLR,,0.65,WeatherDisplay:10.37,2013-06-28 01:28:00,
2013-06-27 21:33:00,68.6,65.2,29.88,East,93,1.2,0.0,89,0.00,CLR,,0.65,WeatherDisplay:10.37,2013-06-28 01:33:00,
2013-06-27 21:38:00,68.6,65.2,29.88,East,93,1.2,0.0,89,0.00,CLR,,0.65,WeatherDisplay:10.37,2013-06-28 01:38:00,
2013-06-27 21:43:00,68.5,65.1,29.88,East,93,0.0,0.0,89,0.00,CLR,,0.65,WeatherDisplay:10.37,2013-06-28 01:43:00,
2013-06-27 21:48:00,68.4,65.0,29.88,East,93,0.0,0.0,89,0.00,CLR,,0.65,WeatherDisplay:10.37,2013-06-28 01:48:00,
2013-06-27 21:54:00,68.4,65.0,29.88,East,93,0.0,0.0,89,0.00,CLR,,0.65,WeatherDisplay:10.37,2013-06-28 01:54:00,
2013-06-27 21:59:00,68.7,65.3,29.89,East,93,0.0,0.0,89,0.00,CLR,,0.65,WeatherDisplay:10.37,2013-06-28 01:59:00,
2013-06-27 22:04:00,69.2,65.8,29.89,East,93,0.0,0.1,89,0.00,CLR,,0.65,WeatherDisplay:10.37,2013-06-28 02:04:00,
2013-06-27 22:09:00,69.6,65.9,29.89,East,94,1.2,1.2,88,0.00,CLR,,0.65,WeatherDisplay:10.37,2013-06-28 02:09:00,
2013-06-27 22:14:00,70.1,66.4,29.88,East,93,0.0,0.0,88,0.00,CLR,,0.65,WeatherDisplay:10.37,2013-06-28 02:14:00,
2013-06-27 22:19:00,70.4,66.7,29.88,East,93,0.0,0.0,88,0.00,CLR,,0.65,WeatherDisplay:10.37,2013-06-28 02:19:00,
2013-06-27 22:24:00,70.7,67.0,29.89,East,93,0.0,0.0,88,0.00,CLR,,0.65,WeatherDisplay:10.37,2013-06-28 02:24:00,
2013-06-27 22:29:00,70.8,66.7,29.89,East,94,0.0,0.0,87,0.00,CLR,,0.65,WeatherDisplay:10.37,2013-06-28 02:29:00,
2013-06-27 22:34:00,70.8,67.1,29.89,North,6,6.5,6.5,88,0.00,CLR,,0.65,WeatherDisplay:10.37,2013-06-28 02:34:00,
2013-06-27 22:39:00,71.0,67.3,29.89,NE,41,0.0,0.0,88,0.00,CLR,,0.65,WeatherDisplay:10.37,2013-06-28 02:39:00,
2013-06-27 22:44:00,71.1,67.4,29.89,East,87,1.2,0.0,88,0.00,CLR,,0.65,WeatherDisplay:10.37,2013-06-28 02:44:00,
2013-06-27 22:49:00,71.2,67.1,29.89,East,79,2.2,2.2,87,0.00,CLR,,0.65,WeatherDisplay:10.37,2013-06-28 02:49:00,
2013-06-27 22:54:00,71.3,67.2,29.89,ENE,60,0.0,0.0,87,0.00,CLR,,0.65,WeatherDisplay:10.37,2013-06-28 02:54:00,
2013-06-27 23:00:00,71.4,67.3,29.90,NNE,25,0.0,0.0,87,0.00,CLR,,0.65,WeatherDisplay:10.37,2013-06-28 03:00:00,
2013-06-27 23:05:00,71.5,67.4,29.90,North,360,0.0,0.0,87,0.00,CLR,,0.65,WeatherDisplay:10.37,2013-06-28 03:05:00,
2013-06-27 23:10:00,71.5,67.4,29.90,North,360,0.0,0.0,87,0.00,CLR,,0.65,WeatherDisplay:10.37,2013-06-28 03:10:00,
2013-06-27 23:15:00,71.4,67.3,29.90,North,360,0.0,0.0,87,0.00,CLR,,0.65,WeatherDisplay:10.37,2013-06-28 03:15:00,
2013-06-27 23:20:00,71.4,67.3,29.90,WNW,300,0.0,0.0,87,0.00,CLR,,0.65,WeatherDisplay:10.37,2013-06-28 03:20:00,
2013-06-27 23:25:00,71.5,67.4,29.90,WNW,300,0.0,0.0,87,0.00,CLR,,0.65,WeatherDisplay:10.37,2013-06-28 03:25:00,
2013-06-27 23:30:00,71.5,67.4,29.90,WNW,300,0.0,0.0,87,0.00,CLR,,0.65,WeatherDisplay:10.37,2013-06-28 03:30:00,
2013-06-27 23:35:00,71.5,67.4,29.90,WNW,300,1.2,0.0,87,0.00,CLR,,0.65,WeatherDisplay:10.37,2013-06-28 03:35:00,
2013-06-27 23:40:00,71.3,67.6,29.90,WNW,300,0.0,0.0,88,0.00,CLR,,0.65,WeatherDisplay:10.37,2013-06-28 03:40:00,
2013-06-27 23:45:00,71.1,67.4,29.90,WNW,300,0.0,0.0,88,0.00,CLR,,0.65,WeatherDisplay:10.37,2013-06-28 03:45:00,
2013-06-27 23:50:00,70.9,67.2,29.90,WNW,300,0.0,0.0,88,0.00,CLR,,0.65,WeatherDisplay:10.37,2013-06-28 03:50:00,
2013-06-27 23:55:00,70.8,67.1,29.90,WNW,300,0.0,0.0,88,0.00,CLR,,0.65,WeatherDisplay:10.37,2013-06-28 03:55:00,